Time,TemperatureF,DewpointF,PressureIn,WindDirection,WindDirectionDegrees,WindSpeedMPH,WindSpeedGustMPH,Humidity,HourlyPrecipIn,Conditions,Clouds,dailyrainin,SoftwareType,DateUTC
2013-04-25 00:11:00,30.0,17.0,-100.00,ENE,63,6.0,11.0,58,0.00,,,0.00,,2013-04-25 06:11:00,
2013-04-25 00:22:00,30.0,17.0,-100.00,ENE,63,6.0,11.0,58,0.00,,,0.00,,2013-04-25 06:22:00,
2013-04-25 00:31:00,30.0,17.0,-100.00,ENE,63,6.0,11.0,58,0.00,,,0.00,,2013-04-25 06:31:00,
2013-04-25 00:41:00,30.0,17.0,-100.00,ENE,63,6.0,11.0,58,0.00,,,0.00,,2013-04-25 06:41:00,
2013-04-25 00:51:00,28.0,15.0,-100.00,ENE,77,1.0,10.0,58,0.00,,,0.00,,2013-04-25 06:51:00,
2013-04-25 01:11:00,28.0,15.0,-100.00,ENE,77,1.0,10.0,58,0.00,,,0.00,,2013-04-25 07:11:00,
2013-04-25 01:21:00,28.0,15.0,-100.00,ENE,77,1.0,10.0,58,0.00,,,0.00,,2013-04-25 07:21:00,
2013-04-25 01:31:00,28.0,15.0,-100.00,ENE,77,1.0,10.0,58,0.00,,,0.00,,2013-04-25 07:31:00,
2013-04-25 01:42:00,28.0,15.0,-100.00,ENE,77,1.0,10.0,58,0.00,,,0.00,,2013-04-25 07:42:00,
2013-04-25 01:51:00,28.0,16.0,-100.00,ENE,70,7.0,14.0,60,0.00,,,0.00,,2013-04-25 07:51:00,
2013-04-25 02:21:00,28.0,16.0,-100.00,ENE,70,7.0,14.0,60,0.00,,,0.00,,2013-04-25 08:21:00,
2013-04-25 02:31:00,28.0,16.0,-100.00,ENE,70,7.0,14.0,60,0.00,,,0.00,,2013-04-25 08:31:00,
2013-04-25 02:41:00,28.0,16.0,-100.00,ENE,70,7.0,14.0,60,0.00,,,0.00,,2013-04-25 08:41:00,
2013-04-25 02:51:00,28.0,16.0,-100.00,ENE,58,7.0,13.0,60,0.00,,,0.00,,2013-04-25 08:51:00,
2013-04-25 03:21:00,28.0,16.0,-100.00,ENE,58,7.0,13.0,60,0.00,,,0.00,,2013-04-25 09:21:00,
2013-04-25 03:33:00,28.0,16.0,-100.00,ENE,58,7.0,13.0,60,0.00,,,0.00,,2013-04-25 09:33:00,
2013-04-25 03:42:00,28.0,16.0,-100.00,ENE,58,7.0,13.0,60,0.00,,,0.00,,2013-04-25 09:42:00,
2013-04-25 03:51:00,26.0,15.0,-100.00,North,351,4.0,16.0,63,0.00,,,0.00,,2013-04-25 09:51:00,
2013-04-25 04:12:00,26.0,15.0,-100.00,North,351,4.0,16.0,63,0.00,,,0.00,,2013-04-25 10:12:00,
2013-04-25 04:22:00,26.0,15.0,-100.00,North,351,4.0,16.0,63,0.00,,,0.00,,2013-04-25 10:22:00,
2013-04-25 04:32:00,26.0,15.0,-100.00,North,351,4.0,16.0,63,0.00,,,0.00,,2013-04-25 10:32:00,
2013-04-25 04:42:00,26.0,15.0,-100.00,North,351,4.0,16.0,63,0.00,,,0.00,,2013-04-25 10:42:00,
2013-04-25 04:51:00,26.0,15.0,-100.00,NNE,31,6.0,11.0,63,0.00,,,0.00,,2013-04-25 10:51:00,
2013-04-25 05:22:00,26.0,15.0,-100.00,NNE,31,6.0,11.0,63,0.00,,,0.00,,2013-04-25 11:22:00,
2013-04-25 05:32:00,26.0,15.0,-100.00,NNE,31,6.0,11.0,63,0.00,,,0.00,,2013-04-25 11:32:00,
2013-04-25 05:42:00,26.0,15.0,-100.00,NNE,31,6.0,11.0,63,0.00,,,0.00,,2013-04-25 11:42:00,
2013-04-25 05:51:00,24.0,14.0,-100.00,NNE,27,6.0,17.0,65,-99.99,,,0.00,,2013-04-25 11:51:00,
2013-04-25 06:12:00,24.0,14.0,-100.00,NNE,27,6.0,17.0,65,-99.99,,,0.00,,2013-04-25 12:12:00,
2013-04-25 06:21:00,24.0,14.0,-100.00,NNE,27,6.0,17.0,65,-99.99,,,0.00,,2013-04-25 12:21:00,
2013-04-25 06:31:00,24.0,14.0,-100.00,NNE,27,6.0,17.0,65,-99.99,,,0.00,,2013-04-25 12:31:00,
2013-04-25 06:41:00,24.0,14.0,-100.00,NNE,27,6.0,17.0,65,-99.99,,,0.00,,2013-04-25 12:41:00,
2013-04-25 06:51:00,24.0,14.0,-100.00,South,179,6.0,22.0,66,0.00,,,0.00,,2013-04-25 12:51:00,
2013-04-25 07:21:00,24.0,14.0,-100.00,South,179,6.0,22.0,66,0.00,,,0.00,,2013-04-25 13:21:00,
2013-04-25 07:31:00,24.0,14.0,-100.00,South,179,6.0,22.0,66,0.00,,,0.00,,2013-04-25 13:31:00,
2013-04-25 07:42:00,24.0,14.0,-100.00,South,179,6.0,22.0,66,0.00,,,0.00,,2013-04-25 13:42:00,
2013-04-25 07:51:00,25.0,14.0,-100.00,ENE,61,8.0,20.0,63,0.00,,,0.00,,2013-04-25 13:51:00,
2013-04-25 08:21:00,25.0,14.0,-100.00,ENE,61,8.0,20.0,63,0.00,,,0.00,,2013-04-25 14:21:00,
2013-04-25 08:32:00,25.0,14.0,-100.00,ENE,61,8.0,20.0,63,0.00,,,0.00,,2013-04-25 14:32:00,
2013-04-25 08:42:00,25.0,14.0,-100.00,ENE,61,8.0,20.0,63,0.00,,,0.00,,2013-04-25 14:42:00,
2013-04-25 08:51:00,32.0,16.0,-100.00,ENE,59,9.0,20.0,51,0.00,,,0.00,,2013-04-25 14:51:00,
2013-04-25 09:21:00,32.0,16.0,-100.00,ENE,59,9.0,20.0,51,0.00,,,0.00,,2013-04-25 15:21:00,
2013-04-25 09:33:00,32.0,16.0,-100.00,ENE,59,9.0,20.0,51,0.00,,,0.00,,2013-04-25 15:33:00,
2013-04-25 09:42:00,32.0,16.0,-100.00,ENE,59,9.0,20.0,51,0.00,,,0.00,,2013-04-25 15:42:00,
2013-04-25 09:51:00,39.0,16.0,-100.00,ENE,67,12.0,24.0,38,0.00,,,0.00,,2013-04-25 15:51:00,
2013-04-25 10:13:00,39.0,16.0,-100.00,ENE,67,12.0,24.0,38,0.00,,,0.00,,2013-04-25 16:13:00,
2013-04-25 10:24:00,39.0,16.0,-100.00,ENE,67,12.0,24.0,38,0.00,,,0.00,,2013-04-25 16:24:00,
2013-04-25 10:32:00,39.0,16.0,-100.00,ENE,67,12.0,24.0,38,0.00,,,0.00,,2013-04-25 16:32:00,
2013-04-25 10:42:00,39.0,16.0,-100.00,ENE,67,12.0,24.0,38,0.00,,,0.00,,2013-04-25 16:42:00,
2013-04-25 10:51:00,48.0,15.0,-100.00,East,89,5.0,19.0,26,0.00,,,0.00,,2013-04-25 16:51:00,
2013-04-25 11:11:00,48.0,15.0,-100.00,East,89,5.0,19.0,26,0.00,,,0.00,,2013-04-25 17:11:00,
2013-04-25 11:22:00,48.0,15.0,-100.00,East,89,5.0,19.0,26,0.00,,,0.00,,2013-04-25 17:22:00,
2013-04-25 11:42:00,48.0,15.0,-100.00,East,89,5.0,19.0,26,0.00,,,0.00,,2013-04-25 17:42:00,
2013-04-25 11:51:00,51.0,11.0,-100.00,WSW,237,9.0,18.0,20,0.00,,,0.00,,2013-04-25 17:51:00,
2013-04-25 12:11:00,51.0,11.0,-100.00,WSW,237,9.0,18.0,20,0.00,,,0.00,,2013-04-25 18:11:00,
2013-04-25 12:21:00,51.0,11.0,-100.00,WSW,237,9.0,18.0,20,0.00,,,0.00,,2013-04-25 18:21:00,
2013-04-25 12:32:00,51.0,11.0,-100.00,WSW,237,9.0,18.0,20,0.00,,,0.00,,2013-04-25 18:32:00,
2013-04-25 12:42:00,51.0,11.0,-100.00,WSW,237,9.0,18.0,20,0.00,,,0.00,,2013-04-25 18:42:00,
2013-04-25 12:51:00,53.0,11.0,-100.00,West,261,7.0,20.0,18,0.00,,,0.00,,2013-04-25 18:51:00,
2013-04-25 13:12:00,53.0,11.0,-100.00,West,261,7.0,20.0,18,0.00,,,0.00,,2013-04-25 19:12:00,
2013-04-25 13:21:00,53.0,11.0,-100.00,West,261,7.0,20.0,18,0.00,,,0.00,,2013-04-25 19:21:00,
2013-04-25 13:31:00,53.0,11.0,-100.00,West,261,7.0,20.0,18,0.00,,,0.00,,2013-04-25 19:31:00,
2013-04-25 13:41:00,53.0,11.0,-100.00,West,261,7.0,20.0,18,0.00,,,0.00,,2013-04-25 19:41:00,
2013-04-25 13:51:00,56.0,13.0,-100.00,WSW,242,11.0,22.0,18,0.00,,,0.00,,2013-04-25 19:51:00,
2013-04-25 14:22:00,56.0,13.0,-100.00,WSW,242,11.0,22.0,18,0.00,,,0.00,,2013-04-25 20:22:00,
2013-04-25 14:32:00,56.0,13.0,-100.00,WSW,242,11.0,22.0,18,0.00,,,0.00,,2013-04-25 20:32:00,
2013-04-25 14:42:00,56.0,13.0,-100.00,WSW,242,11.0,22.0,18,0.00,,,0.00,,2013-04-25 20:42:00,
2013-04-25 14:51:00,55.0,11.0,-100.00,WSW,240,12.0,22.0,17,0.00,,,0.00,,2013-04-25 20:51:00,
2013-04-25 15:11:00,55.0,11.0,-100.00,WSW,240,12.0,22.0,17,0.00,,,0.00,,2013-04-25 21:11:00,
2013-04-25 15:21:00,55.0,11.0,-100.00,WSW,240,12.0,22.0,17,0.00,,,0.00,,2013-04-25 21:21:00,
2013-04-25 15:33:00,55.0,11.0,-100.00,WSW,240,12.0,22.0,17,0.00,,,0.00,,2013-04-25 21:33:00,
2013-04-25 15:42:00,55.0,11.0,-100.00,WSW,240,12.0,22.0,17,0.00,,,0.00,,2013-04-25 21:42:00,
2013-04-25 15:51:00,58.0,13.0,-100.00,SW,233,15.0,26.0,17,0.00,,,0.00,,2013-04-25 21:51:00,
2013-04-25 16:22:00,58.0,13.0,-100.00,SW,233,15.0,26.0,17,0.00,,,0.00,,2013-04-25 22:22:00,
2013-04-25 16:32:00,58.0,13.0,-100.00,SW,233,15.0,26.0,17,0.00,,,0.00,,2013-04-25 22:32:00,
2013-04-25 16:42:00,58.0,13.0,-100.00,SW,233,15.0,26.0,17,0.00,,,0.00,,2013-04-25 22:42:00,
2013-04-25 16:51:00,58.0,9.0,-100.00,WSW,242,13.0,21.0,14,0.00,,,0.00,,2013-04-25 22:51:00,
2013-04-25 17:12:00,58.0,9.0,-100.00,WSW,242,13.0,21.0,14,0.00,,,0.00,,2013-04-25 23:12:00,
2013-04-25 17:22:00,58.0,9.0,-100.00,WSW,242,13.0,21.0,14,0.00,,,0.00,,2013-04-25 23:22:00,
2013-04-25 17:32:00,58.0,9.0,-100.00,WSW,242,13.0,21.0,14,0.00,,,0.00,,2013-04-25 23:32:00,
2013-04-25 17:41:00,58.0,9.0,-100.00,WSW,242,13.0,21.0,14,0.00,,,0.00,,2013-04-25 23:41:00,
2013-04-25 17:51:00,58.0,7.0,-100.00,WSW,241,13.0,24.0,13,0.00,,,0.00,,2013-04-25 23:51:00,
2013-04-25 18:21:00,58.0,7.0,-100.00,WSW,241,13.0,24.0,13,0.00,,,0.00,,2013-04-26 00:21:00,
2013-04-25 18:31:00,58.0,7.0,-100.00,WSW,241,13.0,24.0,13,0.00,,,0.00,,2013-04-26 00:31:00,
2013-04-25 18:41:00,58.0,7.0,-100.00,WSW,241,13.0,24.0,13,0.00,,,0.00,,2013-04-26 00:41:00,
2013-04-25 18:51:00,56.0,6.0,-100.00,WSW,241,11.0,23.0,13,0.00,,,0.00,,2013-04-26 00:51:00,
2013-04-25 19:11:00,56.0,6.0,-100.00,WSW,241,11.0,23.0,13,0.00,,,0.00,,2013-04-26 01:11:00,
2013-04-25 19:21:00,56.0,6.0,-100.00,WSW,241,11.0,23.0,13,0.00,,,0.00,,2013-04-26 01:21:00,
2013-04-25 19:31:00,56.0,6.0,-100.00,WSW,241,11.0,23.0,13,0.00,,,0.00,,2013-04-26 01:31:00,
2013-04-25 19:41:00,56.0,6.0,-100.00,WSW,241,11.0,23.0,13,0.00,,,0.00,,2013-04-26 01:41:00,
2013-04-25 19:51:00,51.0,10.0,-100.00,SW,222,8.0,19.0,19,0.00,,,0.00,,2013-04-26 01:51:00,
2013-04-25 20:11:00,51.0,10.0,-100.00,SW,222,8.0,19.0,19,0.00,,,0.00,,2013-04-26 02:11:00,
2013-04-25 20:21:00,51.0,10.0,-100.00,SW,222,8.0,19.0,19,0.00,,,0.00,,2013-04-26 02:21:00,
2013-04-25 20:32:00,51.0,10.0,-100.00,SW,222,8.0,19.0,19,0.00,,,0.00,,2013-04-26 02:32:00,
2013-04-25 20:42:00,51.0,10.0,-100.00,SW,222,8.0,19.0,19,0.00,,,0.00,,2013-04-26 02:42:00,
2013-04-25 20:51:00,42.0,15.0,-100.00,ENE,58,1.0,10.0,33,0.00,,,-99.99,,2013-04-26 02:51:00,
2013-04-25 21:21:00,42.0,15.0,-100.00,ENE,58,1.0,10.0,33,0.00,,,-99.99,,2013-04-26 03:21:00,
2013-04-25 21:33:00,42.0,15.0,-100.00,ENE,58,1.0,10.0,33,0.00,,,-99.99,,2013-04-26 03:33:00,
2013-04-25 21:43:00,42.0,15.0,-100.00,ENE,58,1.0,10.0,33,0.00,,,-99.99,,2013-04-26 03:43:00,
2013-04-25 21:51:00,39.0,16.0,-100.00,East,84,6.0,11.0,39,0.00,,,0.00,,2013-04-26 03:51:00,
2013-04-25 22:12:00,39.0,16.0,-100.00,East,84,6.0,11.0,39,0.00,,,0.00,,2013-04-26 04:12:00,
2013-04-25 22:22:00,39.0,16.0,-100.00,East,84,6.0,11.0,39,0.00,,,0.00,,2013-04-26 04:22:00,
2013-04-25 22:32:00,39.0,16.0,-100.00,East,84,6.0,11.0,39,0.00,,,0.00,,2013-04-26 04:32:00,
2013-04-25 22:43:00,39.0,16.0,-100.00,East,84,6.0,11.0,39,0.00,,,0.00,,2013-04-26 04:43:00,
2013-04-25 22:51:00,36.0,18.0,-100.00,ENE,77,6.0,13.0,48,0.00,,,0.00,,2013-04-26 04:51:00,
2013-04-25 23:12:00,36.0,18.0,-100.00,ENE,77,6.0,13.0,48,0.00,,,0.00,,2013-04-26 05:12:00,
2013-04-25 23:22:00,36.0,18.0,-100.00,ENE,77,6.0,13.0,48,0.00,,,0.00,,2013-04-26 05:22:00,
2013-04-25 23:32:00,36.0,18.0,-100.00,ENE,77,6.0,13.0,48,0.00,,,0.00,,2013-04-26 05:32:00,
2013-04-25 23:42:00,36.0,18.0,-100.00,ENE,77,6.0,13.0,48,0.00,,,0.00,,2013-04-26 05:42:00,
2013-04-25 23:51:00,33.0,19.0,-100.00,ENE,66,8.0,11.0,55,0.00,,,0.00,,2013-04-26 05:51:00,